sensor_id;sensor_type;location;lat;lon;timestamp;P1;durP1;ratioP1;P2;durP2;ratioP2
49978;SDS011;35869;50.990;6.962;2023-04-24T00:04:33;0.40;;;0.30;;
49978;SDS011;35869;50.990;6.962;2023-04-24T00:09:33;1.20;;;0.40;;
49978;SDS011;35869;50.990;6.962;2023-04-24T00:14:33;1.20;;;0.50;;
49978;SDS011;35869;50.990;6.962;2023-04-24T00:19:34;0.75;;;0.50;;
49978;SDS011;35869;50.990;6.962;2023-04-24T00:24:34;0.73;;;0.57;;
49978;SDS011;35869;50.990;6.962;2023-04-24T00:29:34;0.90;;;0.57;;
49978;SDS011;35869;50.990;6.962;2023-04-24T00:34:34;0.90;;;0.70;;
49978;SDS011;35869;50.990;6.962;2023-04-24T00:39:35;0.87;;;0.63;;
49978;SDS011;35869;50.990;6.962;2023-04-24T00:44:35;1.33;;;0.60;;
49978;SDS011;35869;50.990;6.962;2023-04-24T00:49:35;0.82;;;0.75;;
49978;SDS011;35869;50.990;6.962;2023-04-24T00:54:35;0.95;;;0.63;;
49978;SDS011;35869;50.990;6.962;2023-04-24T00:59:36;1.17;;;0.83;;
49978;SDS011;35869;50.990;6.962;2023-04-24T01:04:37;0.85;;;0.55;;
49978;SDS011;35869;50.990;6.962;2023-04-24T01:09:37;1.05;;;0.70;;
49978;SDS011;35869;50.990;6.962;2023-04-24T01:14:40;1.17;;;0.80;;
49978;SDS011;35869;50.990;6.962;2023-04-24T01:19:40;2.63;;;1.00;;
49978;SDS011;35869;50.990;6.962;2023-04-24T01:24:41;2.28;;;1.00;;
49978;SDS011;35869;50.990;6.962;2023-04-24T01:29:42;0.90;;;0.70;;
49978;SDS011;35869;50.990;6.962;2023-04-24T01:34:42;1.83;;;1.52;;
49978;SDS011;35869;50.990;6.962;2023-04-24T01:39:43;3.50;;;1.90;;
49978;SDS011;35869;50.990;6.962;2023-04-24T01:44:43;2.03;;;1.83;;
49978;SDS011;35869;50.990;6.962;2023-04-24T01:49:44;3.97;;;2.08;;
49978;SDS011;35869;50.990;6.962;2023-04-24T01:54:45;4.18;;;2.55;;
49978;SDS011;35869;50.990;6.962;2023-04-24T01:59:46;2.63;;;2.17;;
49978;SDS011;35869;50.990;6.962;2023-04-24T02:04:46;7.10;;;3.22;;
49978;SDS011;35869;50.990;6.962;2023-04-24T02:09:46;3.83;;;2.90;;
49978;SDS011;35869;50.990;6.962;2023-04-24T02:14:46;3.73;;;2.90;;
49978;SDS011;35869;50.990;6.962;2023-04-24T02:19:47;5.85;;;3.60;;
49978;SDS011;35869;50.990;6.962;2023-04-24T02:24:47;5.38;;;3.95;;
49978;SDS011;35869;50.990;6.962;2023-04-24T02:29:47;4.45;;;3.50;;
49978;SDS011;35869;50.990;6.962;2023-04-24T02:34:47;5.47;;;3.60;;
49978;SDS011;35869;50.990;6.962;2023-04-24T02:39:47;4.75;;;3.13;;
49978;SDS011;35869;50.990;6.962;2023-04-24T02:44:47;4.07;;;3.15;;
49978;SDS011;35869;50.990;6.962;2023-04-24T02:49:48;5.38;;;3.45;;
49978;SDS011;35869;50.990;6.962;2023-04-24T02:54:48;7.18;;;3.55;;
49978;SDS011;35869;50.990;6.962;2023-04-24T02:59:48;6.03;;;3.70;;
49978;SDS011;35869;50.990;6.962;2023-04-24T03:04:48;4.78;;;4.30;;
49978;SDS011;35869;50.990;6.962;2023-04-24T03:09:48;7.75;;;4.40;;
49978;SDS011;35869;50.990;6.962;2023-04-24T03:14:49;5.53;;;3.90;;
49978;SDS011;35869;50.990;6.962;2023-04-24T03:19:49;6.63;;;4.57;;
49978;SDS011;35869;50.990;6.962;2023-04-24T03:24:49;6.20;;;4.70;;
49978;SDS011;35869;50.990;6.962;2023-04-24T03:29:49;6.32;;;4.70;;
49978;SDS011;35869;50.990;6.962;2023-04-24T03:34:50;6.25;;;4.90;;
49978;SDS011;35869;50.990;6.962;2023-04-24T03:39:50;5.85;;;5.05;;
49978;SDS011;35869;50.990;6.962;2023-04-24T03:44:50;7.50;;;4.93;;
49978;SDS011;35869;50.990;6.962;2023-04-24T03:49:50;6.57;;;5.18;;
49978;SDS011;35869;50.990;6.962;2023-04-24T03:54:50;11.48;;;5.30;;
49978;SDS011;35869;50.990;6.962;2023-04-24T03:59:51;8.07;;;5.95;;
49978;SDS011;35869;50.990;6.962;2023-04-24T04:04:51;7.22;;;5.13;;
49978;SDS011;35869;50.990;6.962;2023-04-24T04:09:51;7.18;;;5.53;;
49978;SDS011;35869;50.990;6.962;2023-04-24T04:14:51;7.68;;;5.00;;
49978;SDS011;35869;50.990;6.962;2023-04-24T04:19:51;9.07;;;5.40;;
49978;SDS011;35869;50.990;6.962;2023-04-24T04:24:52;8.40;;;4.78;;
49978;SDS011;35869;50.990;6.962;2023-04-24T04:29:52;5.17;;;4.23;;
49978;SDS011;35869;50.990;6.962;2023-04-24T04:34:52;7.55;;;5.50;;
49978;SDS011;35869;50.990;6.962;2023-04-24T04:39:52;8.48;;;5.25;;
49978;SDS011;35869;50.990;6.962;2023-04-24T04:44:53;6.65;;;4.82;;
49978;SDS011;35869;50.990;6.962;2023-04-24T04:49:53;7.43;;;5.33;;
49978;SDS011;35869;50.990;6.962;2023-04-24T04:54:53;5.90;;;4.15;;
49978;SDS011;35869;50.990;6.962;2023-04-24T04:59:53;7.28;;;5.22;;
49978;SDS011;35869;50.990;6.962;2023-04-24T05:04:53;5.15;;;4.20;;
49978;SDS011;35869;50.990;6.962;2023-04-24T05:09:54;5.63;;;4.65;;
49978;SDS011;35869;50.990;6.962;2023-04-24T05:14:54;5.93;;;4.07;;
49978;SDS011;35869;50.990;6.962;2023-04-24T05:19:54;4.82;;;4.22;;
49978;SDS011;35869;50.990;6.962;2023-04-24T05:24:54;4.80;;;3.63;;
49978;SDS011;35869;50.990;6.962;2023-04-24T05:29:54;7.22;;;4.35;;
49978;SDS011;35869;50.990;6.962;2023-04-24T05:34:55;6.82;;;3.95;;
49978;SDS011;35869;50.990;6.962;2023-04-24T05:39:55;5.68;;;4.63;;
49978;SDS011;35869;50.990;6.962;2023-04-24T05:44:55;7.25;;;4.13;;
49978;SDS011;35869;50.990;6.962;2023-04-24T05:49:55;5.40;;;3.65;;
49978;SDS011;35869;50.990;6.962;2023-04-24T05:54:55;6.78;;;4.45;;
49978;SDS011;35869;50.990;6.962;2023-04-24T05:59:56;6.80;;;5.22;;
49978;SDS011;35869;50.990;6.962;2023-04-24T06:04:56;9.20;;;4.82;;
49978;SDS011;35869;50.990;6.962;2023-04-24T06:09:56;5.07;;;4.15;;
49978;SDS011;35869;50.990;6.962;2023-04-24T06:14:56;6.18;;;4.65;;
49978;SDS011;35869;50.990;6.962;2023-04-24T06:19:56;4.35;;;3.10;;
49978;SDS011;35869;50.990;6.962;2023-04-24T06:24:56;3.08;;;2.30;;
49978;SDS011;35869;50.990;6.962;2023-04-24T06:29:57;2.78;;;1.90;;
49978;SDS011;35869;50.990;6.962;2023-04-24T06:34:57;2.50;;;1.40;;
49978;SDS011;35869;50.990;6.962;2023-04-24T06:39:57;2.42;;;1.88;;
49978;SDS011;35869;50.990;6.962;2023-04-24T06:44:57;2.97;;;1.98;;
49978;SDS011;35869;50.990;6.962;2023-04-24T06:49:58;2.58;;;1.55;;
49978;SDS011;35869;50.990;6.962;2023-04-24T06:55:04;2.00;;;1.52;;
49978;SDS011;35869;50.990;6.962;2023-04-24T07:00:05;2.95;;;1.65;;
49978;SDS011;35869;50.990;6.962;2023-04-24T07:05:06;2.78;;;1.50;;
49978;SDS011;35869;50.990;6.962;2023-04-24T07:10:06;1.57;;;1.30;;
49978;SDS011;35869;50.990;6.962;2023-04-24T07:15:07;3.13;;;2.08;;
49978;SDS011;35869;50.990;6.962;2023-04-24T07:20:08;2.03;;;1.77;;
49978;SDS011;35869;50.990;6.962;2023-04-24T07:25:09;2.63;;;2.00;;
49978;SDS011;35869;50.990;6.962;2023-04-24T07:30:09;4.05;;;2.90;;
49978;SDS011;35869;50.990;6.962;2023-04-24T07:35:10;3.40;;;1.88;;
49978;SDS011;35869;50.990;6.962;2023-04-24T07:40:10;2.15;;;1.55;;
49978;SDS011;35869;50.990;6.962;2023-04-24T07:45:11;2.70;;;1.42;;
49978;SDS011;35869;50.990;6.962;2023-04-24T07:50:11;11.07;;;2.08;;
49978;SDS011;35869;50.990;6.962;2023-04-24T07:55:12;2.97;;;1.17;;
49978;SDS011;35869;50.990;6.962;2023-04-24T08:00:12;2.30;;;1.10;;
49978;SDS011;35869;50.990;6.962;2023-04-24T08:05:13;1.27;;;0.95;;
49978;SDS011;35869;50.990;6.962;2023-04-24T08:10:13;3.40;;;1.40;;
49978;SDS011;35869;50.990;6.962;2023-04-24T08:15:13;1.33;;;1.20;;
49978;SDS011;35869;50.990;6.962;2023-04-24T08:20:13;0.88;;;0.77;;
49978;SDS011;35869;50.990;6.962;2023-04-24T08:25:14;1.65;;;0.90;;
49978;SDS011;35869;50.990;6.962;2023-04-24T08:30:14;2.23;;;1.00;;
49978;SDS011;35869;50.990;6.962;2023-04-24T08:35:14;2.80;;;1.17;;
49978;SDS011;35869;50.990;6.962;2023-04-24T08:40:15;1.85;;;1.27;;
49978;SDS011;35869;50.990;6.962;2023-04-24T08:50:16;1.83;;;1.40;;
49978;SDS011;35869;50.990;6.962;2023-04-24T08:55:17;1.38;;;1.20;;
49978;SDS011;35869;50.990;6.962;2023-04-24T09:00:17;6.73;;;2.17;;
49978;SDS011;35869;50.990;6.962;2023-04-24T09:05:19;3.70;;;2.65;;
49978;SDS011;35869;50.990;6.962;2023-04-24T09:10:22;3.63;;;3.08;;
49978;SDS011;35869;50.990;6.962;2023-04-24T09:15:23;3.97;;;2.75;;
49978;SDS011;35869;50.990;6.962;2023-04-24T09:20:24;4.22;;;3.33;;
49978;SDS011;35869;50.990;6.962;2023-04-24T09:25:31;4.75;;;3.40;;
49978;SDS011;35869;50.990;6.962;2023-04-24T09:30:32;7.10;;;4.57;;
49978;SDS011;35869;50.990;6.962;2023-04-24T09:35:32;9.57;;;4.87;;
49978;SDS011;35869;50.990;6.962;2023-04-24T09:40:33;8.52;;;4.93;;
49978;SDS011;35869;50.990;6.962;2023-04-24T09:45:35;6.65;;;4.47;;
49978;SDS011;35869;50.990;6.962;2023-04-24T09:50:36;9.85;;;6.00;;
49978;SDS011;35869;50.990;6.962;2023-04-24T09:55:42;9.40;;;6.30;;
49978;SDS011;35869;50.990;6.962;2023-04-24T10:00:45;12.10;;;8.25;;
49978;SDS011;35869;50.990;6.962;2023-04-24T10:05:46;10.73;;;7.13;;
49978;SDS011;35869;50.990;6.962;2023-04-24T10:10:46;12.50;;;7.65;;
49978;SDS011;35869;50.990;6.962;2023-04-24T10:15:47;17.23;;;7.07;;
49978;SDS011;35869;50.990;6.962;2023-04-24T10:20:48;10.75;;;6.50;;
49978;SDS011;35869;50.990;6.962;2023-04-24T10:25:49;10.50;;;6.72;;
49978;SDS011;35869;50.990;6.962;2023-04-24T10:30:50;9.07;;;5.78;;
49978;SDS011;35869;50.990;6.962;2023-04-24T10:35:53;7.70;;;4.82;;
49978;SDS011;35869;50.990;6.962;2023-04-24T10:41:08;7.75;;;5.00;;
49978;SDS011;35869;50.990;6.962;2023-04-24T10:46:09;8.73;;;5.20;;
49978;SDS011;35869;50.990;6.962;2023-04-24T10:51:12;14.02;;;5.80;;
49978;SDS011;35869;50.990;6.962;2023-04-24T10:56:15;7.95;;;3.83;;
49978;SDS011;35869;50.990;6.962;2023-04-24T11:01:29;10.20;;;4.63;;
49978;SDS011;35869;50.990;6.962;2023-04-24T11:06:34;7.53;;;4.50;;
49978;SDS011;35869;50.990;6.962;2023-04-24T11:11:36;6.95;;;3.80;;
49978;SDS011;35869;50.990;6.962;2023-04-24T11:21:55;10.80;;;2.92;;
49978;SDS011;35869;50.990;6.962;2023-04-24T11:26:56;5.85;;;3.60;;
49978;SDS011;35869;50.990;6.962;2023-04-24T11:32:14;13.85;;;4.55;;
49978;SDS011;35869;50.990;6.962;2023-04-24T11:37:34;9.55;;;4.88;;
49978;SDS011;35869;50.990;6.962;2023-04-24T11:42:37;5.35;;;4.80;;
49978;SDS011;35869;50.990;6.962;2023-04-24T11:47:40;10.90;;;5.40;;
49978;SDS011;35869;50.990;6.962;2023-04-24T11:52:42;9.60;;;5.22;;
49978;SDS011;35869;50.990;6.962;2023-04-24T11:57:45;6.00;;;4.60;;
49978;SDS011;35869;50.990;6.962;2023-04-24T12:02:47;8.32;;;5.75;;
49978;SDS011;35869;50.990;6.962;2023-04-24T12:12:49;11.38;;;6.10;;
49978;SDS011;35869;50.990;6.962;2023-04-24T12:22:54;11.15;;;6.25;;
49978;SDS011;35869;50.990;6.962;2023-04-24T12:33:02;6.22;;;3.92;;
49978;SDS011;35869;50.990;6.962;2023-04-24T12:38:09;7.67;;;4.87;;
49978;SDS011;35869;50.990;6.962;2023-04-24T12:43:18;11.98;;;5.10;;
49978;SDS011;35869;50.990;6.962;2023-04-24T12:48:19;10.60;;;4.40;;
49978;SDS011;35869;50.990;6.962;2023-04-24T12:53:19;7.13;;;4.03;;
49978;SDS011;35869;50.990;6.962;2023-04-24T12:58:20;6.03;;;4.28;;
49978;SDS011;35869;50.990;6.962;2023-04-24T13:03:20;13.17;;;4.23;;
49978;SDS011;35869;50.990;6.962;2023-04-24T13:08:20;7.45;;;3.22;;
49978;SDS011;35869;50.990;6.962;2023-04-24T13:13:20;6.93;;;4.20;;
49978;SDS011;35869;50.990;6.962;2023-04-24T13:18:21;6.72;;;4.30;;
49978;SDS011;35869;50.990;6.962;2023-04-24T13:23:21;7.30;;;4.07;;
49978;SDS011;35869;50.990;6.962;2023-04-24T13:28:22;8.38;;;4.13;;
49978;SDS011;35869;50.990;6.962;2023-04-24T13:33:22;5.40;;;2.70;;
49978;SDS011;35869;50.990;6.962;2023-04-24T13:38:23;4.57;;;3.43;;
49978;SDS011;35869;50.990;6.962;2023-04-24T13:43:23;4.55;;;3.33;;
49978;SDS011;35869;50.990;6.962;2023-04-24T13:48:23;6.13;;;3.10;;
49978;SDS011;35869;50.990;6.962;2023-04-24T13:53:24;7.97;;;3.10;;
49978;SDS011;35869;50.990;6.962;2023-04-24T13:58:24;3.78;;;2.72;;
49978;SDS011;35869;50.990;6.962;2023-04-24T14:03:24;6.23;;;3.10;;
49978;SDS011;35869;50.990;6.962;2023-04-24T14:08:25;4.15;;;2.72;;
49978;SDS011;35869;50.990;6.962;2023-04-24T14:13:25;5.13;;;3.05;;
49978;SDS011;35869;50.990;6.962;2023-04-24T14:18:25;7.83;;;3.10;;
49978;SDS011;35869;50.990;6.962;2023-04-24T14:23:33;7.68;;;3.20;;
49978;SDS011;35869;50.990;6.962;2023-04-24T14:28:39;3.58;;;2.72;;
49978;SDS011;35869;50.990;6.962;2023-04-24T14:33:52;3.67;;;2.55;;
49978;SDS011;35869;50.990;6.962;2023-04-24T14:38:56;6.00;;;3.40;;
49978;SDS011;35869;50.990;6.962;2023-04-24T14:43:56;4.82;;;3.15;;
49978;SDS011;35869;50.990;6.962;2023-04-24T14:48:56;4.25;;;3.10;;
49978;SDS011;35869;50.990;6.962;2023-04-24T14:53:57;4.87;;;2.77;;
49978;SDS011;35869;50.990;6.962;2023-04-24T15:03:58;8.80;;;3.20;;
49978;SDS011;35869;50.990;6.962;2023-04-24T15:08:58;6.68;;;2.88;;
49978;SDS011;35869;50.990;6.962;2023-04-24T15:13:58;4.63;;;2.38;;
49978;SDS011;35869;50.990;6.962;2023-04-24T15:18:59;5.80;;;2.50;;
49978;SDS011;35869;50.990;6.962;2023-04-24T15:23:59;5.85;;;3.15;;
49978;SDS011;35869;50.990;6.962;2023-04-24T15:28:59;5.43;;;2.58;;
49978;SDS011;35869;50.990;6.962;2023-04-24T15:33:59;4.45;;;2.90;;
49978;SDS011;35869;50.990;6.962;2023-04-24T15:39:03;5.00;;;2.42;;
49978;SDS011;35869;50.990;6.962;2023-04-24T15:44:03;7.90;;;2.90;;
49978;SDS011;35869;50.990;6.962;2023-04-24T15:49:03;4.93;;;2.22;;
49978;SDS011;35869;50.990;6.962;2023-04-24T15:54:04;3.55;;;2.78;;
49978;SDS011;35869;50.990;6.962;2023-04-24T15:59:04;6.97;;;3.00;;
49978;SDS011;35869;50.990;6.962;2023-04-24T16:04:05;7.78;;;3.20;;
49978;SDS011;35869;50.990;6.962;2023-04-24T16:09:05;4.43;;;2.72;;
49978;SDS011;35869;50.990;6.962;2023-04-24T16:14:05;3.05;;;2.33;;
49978;SDS011;35869;50.990;6.962;2023-04-24T16:19:06;3.60;;;2.50;;
49978;SDS011;35869;50.990;6.962;2023-04-24T16:24:06;8.38;;;2.90;;
49978;SDS011;35869;50.990;6.962;2023-04-24T16:29:06;5.53;;;2.60;;
49978;SDS011;35869;50.990;6.962;2023-04-24T16:34:06;3.45;;;2.70;;
49978;SDS011;35869;50.990;6.962;2023-04-24T16:39:07;3.28;;;2.20;;
49978;SDS011;35869;50.990;6.962;2023-04-24T16:44:07;3.40;;;2.53;;
49978;SDS011;35869;50.990;6.962;2023-04-24T16:49:08;3.65;;;2.08;;
49978;SDS011;35869;50.990;6.962;2023-04-24T16:54:09;6.25;;;2.17;;
49978;SDS011;35869;50.990;6.962;2023-04-24T16:59:09;5.45;;;1.80;;
49978;SDS011;35869;50.990;6.962;2023-04-24T17:04:09;3.90;;;1.80;;
49978;SDS011;35869;50.990;6.962;2023-04-24T17:09:09;1.93;;;1.80;;
49978;SDS011;35869;50.990;6.962;2023-04-24T17:14:10;6.03;;;2.05;;
49978;SDS011;35869;50.990;6.962;2023-04-24T17:19:10;2.85;;;1.50;;
49978;SDS011;35869;50.990;6.962;2023-04-24T17:24:14;3.55;;;1.25;;
49978;SDS011;35869;50.990;6.962;2023-04-24T17:29:14;3.50;;;2.00;;
49978;SDS011;35869;50.990;6.962;2023-04-24T17:34:14;5.35;;;1.58;;
49978;SDS011;35869;50.990;6.962;2023-04-24T17:39:14;1.70;;;1.47;;
49978;SDS011;35869;50.990;6.962;2023-04-24T17:44:15;2.10;;;1.55;;
49978;SDS011;35869;50.990;6.962;2023-04-24T17:49:15;4.38;;;1.73;;
49978;SDS011;35869;50.990;6.962;2023-04-24T17:54:16;1.65;;;1.20;;
49978;SDS011;35869;50.990;6.962;2023-04-24T17:59:16;5.88;;;1.60;;
49978;SDS011;35869;50.990;6.962;2023-04-24T18:04:16;4.65;;;2.10;;
49978;SDS011;35869;50.990;6.962;2023-04-24T18:09:16;3.03;;;1.60;;
49978;SDS011;35869;50.990;6.962;2023-04-24T18:14:18;3.28;;;1.90;;
49978;SDS011;35869;50.990;6.962;2023-04-24T18:19:18;10.63;;;2.10;;
49978;SDS011;35869;50.990;6.962;2023-04-24T18:24:18;3.05;;;1.30;;
49978;SDS011;35869;50.990;6.962;2023-04-24T18:29:18;3.72;;;2.22;;
49978;SDS011;35869;50.990;6.962;2023-04-24T18:34:19;4.13;;;1.35;;
49978;SDS011;35869;50.990;6.962;2023-04-24T18:39:19;8.15;;;1.92;;
49978;SDS011;35869;50.990;6.962;2023-04-24T18:44:19;4.50;;;1.92;;
49978;SDS011;35869;50.990;6.962;2023-04-24T18:49:19;4.93;;;1.75;;
49978;SDS011;35869;50.990;6.962;2023-04-24T18:54:19;3.90;;;2.28;;
49978;SDS011;35869;50.990;6.962;2023-04-24T18:59:21;5.47;;;2.00;;
49978;SDS011;35869;50.990;6.962;2023-04-24T19:04:21;1.75;;;1.40;;
49978;SDS011;35869;50.990;6.962;2023-04-24T19:09:21;5.13;;;2.47;;
49978;SDS011;35869;50.990;6.962;2023-04-24T19:14:21;4.13;;;1.83;;
49978;SDS011;35869;50.990;6.962;2023-04-24T19:19:22;6.10;;;1.98;;
49978;SDS011;35869;50.990;6.962;2023-04-24T19:24:22;5.47;;;2.25;;
49978;SDS011;35869;50.990;6.962;2023-04-24T19:34:23;3.47;;;2.28;;
49978;SDS011;35869;50.990;6.962;2023-04-24T19:39:24;5.00;;;1.93;;
49978;SDS011;35869;50.990;6.962;2023-04-24T19:44:24;3.58;;;1.75;;
49978;SDS011;35869;50.990;6.962;2023-04-24T19:49:24;3.80;;;1.70;;
49978;SDS011;35869;50.990;6.962;2023-04-24T19:54:24;3.53;;;2.03;;
49978;SDS011;35869;50.990;6.962;2023-04-24T19:59:25;3.85;;;1.92;;
49978;SDS011;35869;50.990;6.962;2023-04-24T20:04:25;3.83;;;1.42;;
49978;SDS011;35869;50.990;6.962;2023-04-24T20:09:25;2.83;;;1.80;;
49978;SDS011;35869;50.990;6.962;2023-04-24T20:14:25;4.35;;;2.00;;
49978;SDS011;35869;50.990;6.962;2023-04-24T20:19:26;3.75;;;2.10;;
49978;SDS011;35869;50.990;6.962;2023-04-24T20:24:26;4.22;;;1.92;;
49978;SDS011;35869;50.990;6.962;2023-04-24T20:29:27;3.72;;;2.63;;
49978;SDS011;35869;50.990;6.962;2023-04-24T20:34:27;5.00;;;2.75;;
49978;SDS011;35869;50.990;6.962;2023-04-24T20:39:27;7.22;;;3.78;;
49978;SDS011;35869;50.990;6.962;2023-04-24T20:44:31;6.65;;;3.40;;
49978;SDS011;35869;50.990;6.962;2023-04-24T20:49:31;5.60;;;3.13;;
49978;SDS011;35869;50.990;6.962;2023-04-24T20:54:32;3.97;;;2.45;;
49978;SDS011;35869;50.990;6.962;2023-04-24T20:59:35;5.63;;;2.85;;
49978;SDS011;35869;50.990;6.962;2023-04-24T21:04:35;5.68;;;2.63;;
49978;SDS011;35869;50.990;6.962;2023-04-24T21:09:35;5.57;;;3.42;;
49978;SDS011;35869;50.990;6.962;2023-04-24T21:14:36;7.10;;;2.90;;
49978;SDS011;35869;50.990;6.962;2023-04-24T21:19:36;4.20;;;2.70;;
49978;SDS011;35869;50.990;6.962;2023-04-24T21:24:36;4.57;;;2.83;;
49978;SDS011;35869;50.990;6.962;2023-04-24T21:29:36;4.88;;;3.10;;
49978;SDS011;35869;50.990;6.962;2023-04-24T21:34:36;6.45;;;3.00;;
49978;SDS011;35869;50.990;6.962;2023-04-24T21:39:37;5.28;;;2.78;;
49978;SDS011;35869;50.990;6.962;2023-04-24T21:44:37;6.32;;;3.28;;
49978;SDS011;35869;50.990;6.962;2023-04-24T21:49:37;5.25;;;2.70;;
49978;SDS011;35869;50.990;6.962;2023-04-24T21:54:37;6.43;;;2.63;;
49978;SDS011;35869;50.990;6.962;2023-04-24T21:59:38;5.75;;;3.38;;
49978;SDS011;35869;50.990;6.962;2023-04-24T22:04:39;3.35;;;2.85;;
49978;SDS011;35869;50.990;6.962;2023-04-24T22:09:39;8.18;;;3.40;;
49978;SDS011;35869;50.990;6.962;2023-04-24T22:14:39;8.40;;;3.05;;
49978;SDS011;35869;50.990;6.962;2023-04-24T22:19:39;6.28;;;3.70;;
49978;SDS011;35869;50.990;6.962;2023-04-24T22:24:39;5.80;;;3.58;;
49978;SDS011;35869;50.990;6.962;2023-04-24T22:29:40;5.15;;;3.58;;
49978;SDS011;35869;50.990;6.962;2023-04-24T22:34:40;5.65;;;3.33;;
49978;SDS011;35869;50.990;6.962;2023-04-24T22:39:40;11.63;;;3.90;;
49978;SDS011;35869;50.990;6.962;2023-04-24T22:44:40;8.10;;;4.50;;
49978;SDS011;35869;50.990;6.962;2023-04-24T22:49:41;11.73;;;4.03;;
49978;SDS011;35869;50.990;6.962;2023-04-24T22:54:41;6.20;;;3.20;;
49978;SDS011;35869;50.990;6.962;2023-04-24T22:59:41;8.77;;;3.78;;
49978;SDS011;35869;50.990;6.962;2023-04-24T23:04:41;7.20;;;3.10;;
49978;SDS011;35869;50.990;6.962;2023-04-24T23:09:41;5.55;;;3.88;;
49978;SDS011;35869;50.990;6.962;2023-04-24T23:14:42;6.05;;;3.90;;
49978;SDS011;35869;50.990;6.962;2023-04-24T23:19:42;6.87;;;3.83;;
49978;SDS011;35869;50.990;6.962;2023-04-24T23:24:42;6.05;;;3.70;;
49978;SDS011;35869;50.990;6.962;2023-04-24T23:29:43;9.40;;;4.10;;
49978;SDS011;35869;50.990;6.962;2023-04-24T23:34:43;7.60;;;3.92;;
49978;SDS011;35869;50.990;6.962;2023-04-24T23:39:43;9.02;;;4.70;;
49978;SDS011;35869;50.990;6.962;2023-04-24T23:44:44;8.53;;;3.50;;
49978;SDS011;35869;50.990;6.962;2023-04-24T23:49:44;15.38;;;5.03;;
49978;SDS011;35869;50.990;6.962;2023-04-24T23:54:44;6.13;;;4.35;;
49978;SDS011;35869;50.990;6.962;2023-04-24T23:59:44;12.77;;;5.00;;
